Terminal Aerodrome Forecast
Issued by NWS Huntsville, AL

Home | Current Version | Previous Version | Text Only | Print | Product List | Glossary On
Versions: 1 2 3 4 5 6 7 8 9 10 11 12 13 14 15 16 17 18 19 20 21 22 23 24 25 26 27 28 29
000
FTUS44 KHUN 031123
TAFMSL
TAF
KMSL 031123Z 0312/0412 21010G15KT 6SM -SHRA VCTS SCT012 OVC025CB
      TEMPO 0312/0314 3SM TSRA BKN012CB
     FM031500 25015G20KT P6SM VCTS SCT020CB OVC035 PROB30 0321/0401
      3SM TSRA OVC020CB
     FM040100 21008KT P6SM VCSH OVC025=

USA.gov is the U.S. government's official web portal to all federal, state and local government web resources and services.